http://www.schuttertalwetter.de (Christian Eisenberg)
Wetterdaten: aktuell Sonntag, 19.06.2022 20:40
Datum Zeit Temp. A. Luftdruck Regen Wind Richtung Richtung Sonnenschein Solar Windben
19.06.2022 20:40 28,5 C 1006,6 hPa 0,0 l/m 0,0 km/h (0 Bft) - - 0 0 min 30 W/m 0,0 km/h (0 Bft)
19.06.2022 19:40 32,1 C 1006,4 hPa 0,0 l/m 0,0 km/h (0 Bft) - - 0 0 min 60 W/m 0,0 km/h (0 Bft)
19.06.2022 18:40 33,9 C 1006,2 hPa 0,0 l/m 0,0 km/h (0 Bft) - - 0 20 min 100 W/m 0,0 km/h (0 Bft)
19.06.2022 17:40 34,7 C 1006,4 hPa 0,0 l/m 0,0 km/h (0 Bft) - - 0 60 min 471 W/m 0,0 km/h (0 Bft)
19.06.2022 16:40 34,7 C 1006,8 hPa 0,0 l/m 0,0 km/h (0 Bft) - - 0 60 min 628 W/m 0,0 km/h (0 Bft)
19.06.2022 15:40 34,7 C 1007,5 hPa 0,0 l/m 0,0 km/h (0 Bft) - - 0 60 min 738 W/m 0,0 km/h (0 Bft)
19.06.2022 14:40 34,7 C 1008,0 hPa 0,0 l/m 0,0 km/h (0 Bft) - - 0 60 min 817 W/m 0,0 km/h (0 Bft)
19.06.2022 13:40 33,5 C 1008,4 hPa 0,0 l/m 0,0 km/h (0 Bft) - - 0 60 min 842 W/m 0,0 km/h (0 Bft)
19.06.2022 12:40 32,3 C 1008,9 hPa 0,0 l/m 0,0 km/h (0 Bft) - - 0 60 min 700 W/m 0,0 km/h (0 Bft)
19.06.2022 11:40 31,7 C 1009,4 hPa 0,0 l/m 0,0 km/h (0 Bft) - - 0 60 min 766 W/m 0,0 km/h (0 Bft)
19.06.2022 10:40 30,8 C 1009,3 hPa 0,0 l/m 0,0 km/h (0 Bft) - - 0 60 min 668 W/m 0,0 km/h (0 Bft)
19.06.2022 09:40 29,4 C 1009,6 hPa 0,0 l/m 0,0 km/h (0 Bft) - - 0 60 min 471 W/m 0,0 km/h (0 Bft)
19.06.2022 08:40 23,8 C 1009,6 hPa 0,0 l/m 0,0 km/h (0 Bft) - - 0 60 min 308 W/m 0,0 km/h (0 Bft)
19.06.2022 07:40 20,3 C 1009,2 hPa 0,0 l/m 0,0 km/h (0 Bft) - - 0 40 min 218 W/m 0,0 km/h (0 Bft)
19.06.2022 06:40 17,0 C 1009,5 hPa 0,0 l/m 0,0 km/h (0 Bft) - - 0 0 min 40 W/m 0,0 km/h (0 Bft)
19.06.2022 05:40 16,1 C 1009,6 hPa 0,0 l/m 0,0 km/h (0 Bft) - - 0 5 min 11 W/m 0,0 km/h (0 Bft)
19.06.2022 04:40 16,4 C 1010,0 hPa 0,0 l/m 0,0 km/h (0 Bft) - - 0 0 min 0 W/m 0,0 km/h (0 Bft)
19.06.2022 03:40 16,4 C 1010,4 hPa 0,0 l/m 0,0 km/h (0 Bft) - - 0 0 min 0 W/m 0,0 km/h (0 Bft)
19.06.2022 02:40 16,7 C 1010,4 hPa 0,0 l/m 0,0 km/h (0 Bft) - - 0 0 min 0 W/m 0,0 km/h (0 Bft)
19.06.2022 01:40 17,4 C 1010,9 hPa 0,0 l/m 0,0 km/h (0 Bft) - - 0 0 min 0 W/m 0,0 km/h (0 Bft)
19.06.2022 00:40 17,9 C 1011,1 hPa 0,0 l/m 0,0 km/h (0 Bft) - - 0 0 min 0 W/m 0,0 km/h (0 Bft)
18.06.2022 23:40 19,2 C 1011,6 hPa 0,0 l/m 0,0 km/h (0 Bft) - - 0 0 min 0 W/m 0,0 km/h (0 Bft)
18.06.2022 22:40 19,7 C 1011,8 hPa 0,0 l/m 0,0 km/h (0 Bft) - - 0 0 min 0 W/m 0,0 km/h (0 Bft)
18.06.2022 21:40 22,6 C 1011,5 hPa 0,0 l/m 0,0 km/h (0 Bft) - - 0 0 min 0 W/m 0,0 km/h (0 Bft)
18.06.2022 21:00 25,8 C 1012,1 hPa 0,0 l/m 0,0 km/h (0 Bft) - - 0 0 min 19 W/m 0,0 km/h (0 Bft)
_ Min-Zeit 05:10 19:00 - 20:40 - - - - 20:40
Minimum _ 15,9 C 1006,2 hPa - 0,0 km/h (0 Bft) - - - - 0,0 km/h (0 Bft)
_ Max-Zeit 16:05 21:00 20:40 20:40 - - 18:00 13:45 20:40
Maximum _ 35,1 C 1012,1 hPa 0,0 l/m 0,0 km/h
- - (0 Bft)
- - 5 min 851 W/m 0,0 km/h
- - (0 Bft)
Durchschnitt _ 25,6 C 1009,4 hPa #0,0 l/m 0,0 km/h (0 Bft) - - - #11:05 h 450 W/m 0,0 km/h (0 Bft)